Time;durP1;ratioP1;P1;durP2;ratioP2;P2;SDS_P1;SDS_P2;PMS_P1;PMS_P2;Temp;Humidity;BMP_temperature;BMP_pressure;BME280_temperature;BME280_humidity;BME280_pressure;Samples;Min_cycle;Max_cycle;Signal;HPM_P1;HPM_P2
2023/04/23 00:00:29;;;;;;;;;;;16.60;93.00;;;;;;4948465;29;19915;-70
2023/04/23 00:02:55;;;;;;;;;;;16.60;93.20;;;;;;4932121;29;19925;-71
2023/04/23 00:05:20;;;;;;;;;;;16.70;93.30;;;;;;4932503;29;19918;-70
2023/04/23 00:07:46;;;;;;;;;;;16.70;93.30;;;;;;4944167;29;19914;-71
2023/04/23 00:10:11;;;;;;;;;;;16.70;93.40;;;;;;4933476;29;19965;-71
2023/04/23 00:12:37;;;;;;;;;;;16.70;93.70;;;;;;4933488;29;19921;-70
2023/04/23 00:15:03;;;;;;;;;;;16.70;93.90;;;;;;4932410;29;19925;-71
2023/04/23 00:17:29;;;;;;;;;;;16.70;93.90;;;;;;4933268;29;19981;-70
2023/04/23 00:19:54;;;;;;;;;;;16.70;94.40;;;;;;4952454;29;20389;-70
2023/04/23 00:22:20;;;;;;;;;;;16.80;94.00;;;;;;4936667;29;20284;-71
2023/04/23 00:24:46;;;;;;;;;;;16.70;94.50;;;;;;4936710;29;19945;-71
2023/04/23 00:27:12;;;;;;;;;;;16.80;94.10;;;;;;4952755;29;20316;-70
2023/04/23 00:29:37;;;;;;;;;;;16.70;94.60;;;;;;4935402;29;19918;-70
2023/04/23 00:32:03;;;;;;;;;;;16.70;94.40;;;;;;4935953;29;20344;-71
2023/04/23 00:34:29;;;;;;;;;;;16.60;95.40;;;;;;4935616;29;19919;-71
2023/04/23 00:36:54;;;;;;;;;;;16.70;95.60;;;;;;4935991;29;19930;-71
2023/04/23 00:39:20;;;;;;;;;;;16.60;96.00;;;;;;4937103;29;19914;-70
2023/04/23 00:41:47;;;;;;;;;;;16.60;96.60;;;;;;4936269;29;19914;-70
2023/04/23 00:44:12;;;;;;;;;;;16.60;96.60;;;;;;4935509;29;19915;-70
2023/04/23 00:46:38;;;;;;;;;;;16.60;96.40;;;;;;4951717;29;19989;-71
2023/04/23 00:49:04;;;;;;;;;;;16.50;97.10;;;;;;4934982;29;20391;-71
2023/04/23 00:51:30;;;;;;;;;;;16.60;96.90;;;;;;4935852;29;19918;-71
2023/04/23 00:53:56;;;;;;;;;;;16.70;97.10;;;;;;4935389;29;19982;-71
2023/04/23 00:56:22;;;;;;;;;;;16.70;97.40;;;;;;4902953;29;19918;-70
2023/04/23 00:58:49;;;;;;;;;;;16.60;98.00;;;;;;4913499;29;19915;-71
2023/04/23 01:01:19;;;;;;;;;;;16.50;98.50;;;;;;4916451;29;19915;-71
2023/04/23 01:03:45;;;;;;;;;;;16.60;98.30;;;;;;4916439;29;19926;-71
2023/04/23 01:06:11;;;;;;;;;;;16.60;98.00;;;;;;4917133;29;19915;-70
2023/04/23 01:08:36;;;;;;;;;;;16.50;99.00;;;;;;4911954;29;20296;-71
2023/04/23 01:11:04;;;;;;;;;;;16.50;99.50;;;;;;4917007;29;19915;-71
2023/04/23 01:13:30;;;;;;;;;;;16.60;99.30;;;;;;4918386;29;19982;-71
2023/04/23 01:15:56;;;;;;;;;;;16.60;99.80;;;;;;4929636;29;20276;-71
2023/04/23 01:18:22;;;;;;;;;;;16.60;99.40;;;;;;4913430;29;19950;-71
2023/04/23 01:20:48;;;;;;;;;;;16.50;99.90;;;;;;4919873;29;19937;-71
2023/04/23 01:23:14;;;;;;;;;;;16.50;99.90;;;;;;4915106;29;19918;-70
2023/04/23 01:25:40;;;;;;;;;;;16.50;99.90;;;;;;4914717;29;20714;-70
2023/04/23 01:28:05;;;;;;;;;;;16.40;99.90;;;;;;4911520;29;19993;-71
2023/04/23 01:30:32;;;;;;;;;;;16.50;99.90;;;;;;4918925;29;20025;-71
2023/04/23 01:32:57;;;;;;;;;;;16.50;99.90;;;;;;4914085;29;19974;-71
2023/04/23 01:35:23;;;;;;;;;;;16.40;99.90;;;;;;4926071;29;19911;-71
2023/04/23 01:37:50;;;;;;;;;;;16.50;99.90;;;;;;4919452;29;19919;-70
2023/04/23 01:40:16;;;;;;;;;;;16.40;99.90;;;;;;4932966;29;19969;-71
2023/04/23 01:42:41;;;;;;;;;;;16.40;99.90;;;;;;4935777;29;19942;-71
2023/04/23 01:45:07;;;;;;;;;;;16.50;99.90;;;;;;4919695;29;19922;-71
2023/04/23 01:47:34;;;;;;;;;;;16.40;99.90;;;;;;4915934;29;20358;-71
2023/04/23 01:49:59;;;;;;;;;;;16.40;99.90;;;;;;4900117;29;19927;-71
2023/04/23 01:52:25;;;;;;;;;;;16.40;99.90;;;;;;4916662;29;20240;-70
2023/04/23 01:54:51;;;;;;;;;;;16.30;99.90;;;;;;4931434;29;19962;-71
2023/04/23 01:57:22;;;;;;;;;;;16.30;99.90;;;;;;4929087;29;19914;-71
2023/04/23 01:59:48;;;;;;;;;;;16.30;99.90;;;;;;4935650;29;20479;-71
2023/04/23 02:02:15;;;;;;;;;;;16.40;99.90;;;;;;4934853;29;19914;-71
2023/04/23 02:04:40;;;;;;;;;;;16.30;99.90;;;;;;4943674;29;20350;-71
2023/04/23 02:07:06;;;;;;;;;;;16.20;99.90;;;;;;4933748;29;19915;-71
2023/04/23 02:09:32;;;;;;;;;;;16.30;99.90;;;;;;4935355;29;19923;-70
2023/04/23 02:11:57;;;;;;;;;;;16.20;99.90;;;;;;4930875;29;19918;-70
2023/04/23 02:14:23;;;;;;;;;;;16.20;99.90;;;;;;4918604;29;19977;-71
2023/04/23 02:16:50;;;;;;;;;;;16.10;99.90;;;;;;4919125;29;19915;-70
2023/04/23 02:19:16;;;;;;;;;;;16.10;99.90;;;;;;4933991;29;19921;-71
2023/04/23 02:21:41;;;;;;;;;;;16.00;99.90;;;;;;4918876;29;19910;-71
2023/04/23 02:24:07;;;;;;;;;;;16.00;99.90;;;;;;4930550;29;19925;-71
2023/04/23 02:26:33;;;;;;;;;;;16.10;99.90;;;;;;4934340;29;19915;-70
2023/04/23 02:28:59;;;;;;;;;;;16.00;99.90;;;;;;4940194;29;19914;-71
2023/04/23 02:31:24;;;;;;;;;;;15.80;99.90;;;;;;4918715;29;20336;-70
2023/04/23 02:33:50;;;;;;;;;;;15.70;99.90;;;;;;4929758;29;19922;-71
2023/04/23 02:36:16;;;;;;;;;;;15.60;99.90;;;;;;4920799;29;19918;-71
2023/04/23 02:38:43;;;;;;;;;;;15.50;99.90;;;;;;4929796;29;19915;-71
2023/04/23 02:41:09;;;;;;;;;;;15.60;99.90;;;;;;4949009;28;20339;-71
2023/04/23 02:43:35;;;;;;;;;;;15.30;99.90;;;;;;4936818;29;19914;-71
2023/04/23 02:46:06;;;;;;;;;;;15.20;99.90;;;;;;4936513;29;19930;-71
2023/04/23 02:48:39;;;;;;;;;;;15.20;99.90;;;;;;4950373;29;20318;-71
2023/04/23 02:51:05;;;;;;;;;;;15.30;99.90;;;;;;4904766;29;19961;-71
2023/04/23 02:53:31;;;;;;;;;;;15.20;99.90;;;;;;4948435;29;20238;-71
2023/04/23 02:55:57;;;;;;;;;;;15.20;99.90;;;;;;4936283;29;19931;-70
2023/04/23 02:58:24;;;;;;;;;;;15.00;99.90;;;;;;4948944;29;20224;-71
2023/04/23 03:00:50;;;;;;;;;;;15.00;99.90;;;;;;4941198;29;19985;-71
2023/04/23 03:03:15;;;;;;;;;;;15.00;99.90;;;;;;4935322;29;19936;-71
2023/04/23 03:05:41;;;;;;;;;;;15.00;99.90;;;;;;4935097;29;19915;-71
2023/04/23 03:08:07;;;;;;;;;;;15.00;99.90;;;;;;4934789;29;20441;-71
2023/04/23 03:10:32;;;;;;;;;;;15.10;99.90;;;;;;4923005;29;19918;-71
2023/04/23 03:12:58;;;;;;;;;;;15.10;99.90;;;;;;4930842;29;20114;-71
2023/04/23 03:15:24;;;;;;;;;;;15.00;99.90;;;;;;4939419;29;19946;-71
2023/04/23 03:17:51;;;;;;;;;;;14.60;99.90;;;;;;4935714;29;19929;-70
2023/04/23 03:20:17;;;;;;;;;;;14.50;99.90;;;;;;4951827;29;19918;-70
2023/04/23 03:22:43;;;;;;;;;;;14.50;99.90;;;;;;4946487;29;19924;-71
2023/04/23 03:25:08;;;;;;;;;;;14.60;99.90;;;;;;4931060;29;19915;-70
2023/04/23 03:27:34;;;;;;;;;;;14.50;99.90;;;;;;4935257;29;20241;-70
2023/04/23 03:30:00;;;;;;;;;;;14.40;99.90;;;;;;4930973;29;20248;-71
2023/04/23 03:32:26;;;;;;;;;;;14.20;99.90;;;;;;4934188;29;19914;-70
2023/04/23 03:34:51;;;;;;;;;;;14.30;99.90;;;;;;4935528;29;19918;-70
2023/04/23 03:37:17;;;;;;;;;;;14.20;99.90;;;;;;4921649;29;19920;-70
2023/04/23 03:39:42;;;;;;;;;;;14.20;99.90;;;;;;4933895;29;19914;-71
2023/04/23 03:42:08;;;;;;;;;;;14.20;99.90;;;;;;4932211;29;19910;-70
2023/04/23 03:44:34;;;;;;;;;;;14.10;99.90;;;;;;4933784;29;20240;-71
2023/04/23 03:46:59;;;;;;;;;;;14.00;99.90;;;;;;4917663;29;19945;-70
2023/04/23 03:49:25;;;;;;;;;;;14.00;99.90;;;;;;4934215;29;19921;-71
2023/04/23 03:51:51;;;;;;;;;;;14.10;99.90;;;;;;4916251;29;20394;-71
2023/04/23 03:54:17;;;;;;;;;;;14.10;99.90;;;;;;4929538;29;20299;-71
2023/04/23 03:56:43;;;;;;;;;;;14.30;99.90;;;;;;4935150;29;19914;-71
2023/04/23 03:59:08;;;;;;;;;;;14.20;99.90;;;;;;4927874;29;19982;-71
2023/04/23 04:01:35;;;;;;;;;;;14.30;99.90;;;;;;4931524;29;19915;-72
2023/04/23 04:04:00;;;;;;;;;;;14.40;99.90;;;;;;4940169;29;19965;-71
2023/04/23 04:06:26;;;;;;;;;;;14.30;99.90;;;;;;4917184;29;19953;-71
2023/04/23 04:08:54;;;;;;;;;;;14.10;99.90;;;;;;4931620;29;19930;-71
2023/04/23 04:11:20;;;;;;;;;;;13.90;99.90;;;;;;4916855;29;19914;-71
2023/04/23 04:13:46;;;;;;;;;;;14.00;99.90;;;;;;4916768;29;19930;-71
2023/04/23 04:16:11;;;;;;;;;;;14.00;99.90;;;;;;4915995;29;20238;-71
2023/04/23 04:18:38;;;;;;;;;;;14.00;99.90;;;;;;4933787;29;20326;-71
2023/04/23 04:21:03;;;;;;;;;;;13.90;99.90;;;;;;4916791;29;20237;-71
2023/04/23 04:23:29;;;;;;;;;;;14.00;99.90;;;;;;4917226;29;19930;-72
2023/04/23 04:25:56;;;;;;;;;;;13.90;99.90;;;;;;4928166;29;19988;-72
2023/04/23 04:28:24;;;;;;;;;;;14.00;99.90;;;;;;4937793;29;19914;-71
2023/04/23 04:30:52;;;;;;;;;;;13.60;99.90;;;;;;4934241;29;19919;-71
2023/04/23 04:33:19;;;;;;;;;;;13.60;99.90;;;;;;4931584;29;19918;-71
2023/04/23 04:35:45;;;;;;;;;;;13.60;99.90;;;;;;4938283;29;20307;-71
2023/04/23 04:38:11;;;;;;;;;;;13.60;99.90;;;;;;4934938;29;19915;-71
2023/04/23 04:40:37;;;;;;;;;;;13.60;99.90;;;;;;4951016;29;20244;-71
2023/04/23 04:43:05;;;;;;;;;;;13.70;99.90;;;;;;4928317;29;20387;-72
2023/04/23 04:45:31;;;;;;;;;;;13.70;99.90;;;;;;4924309;29;20557;-72
2023/04/23 04:47:56;;;;;;;;;;;13.50;99.90;;;;;;4916963;29;19942;-72
2023/04/23 04:50:23;;;;;;;;;;;13.50;99.90;;;;;;4919097;29;19914;-72
2023/04/23 04:52:48;;;;;;;;;;;13.50;99.90;;;;;;4951246;29;19919;-72
2023/04/23 04:55:14;;;;;;;;;;;13.40;99.90;;;;;;4931138;29;20284;-72
2023/04/23 04:57:40;;;;;;;;;;;13.40;99.90;;;;;;4948354;29;20647;-71
2023/04/23 05:00:26;;;;;;;;;;;13.40;99.90;;;;;;4932405;29;19937;-71
2023/04/23 05:02:52;;;;;;;;;;;13.40;99.90;;;;;;4932960;29;19946;-71
2023/04/23 05:05:18;;;;;;;;;;;13.00;99.90;;;;;;4933825;29;19954;-71
2023/04/23 05:07:43;;;;;;;;;;;13.00;99.90;;;;;;4932674;29;19963;-70
2023/04/23 05:10:09;;;;;;;;;;;13.00;99.90;;;;;;4949976;29;19915;-71
2023/04/23 05:12:36;;;;;;;;;;;13.00;99.90;;;;;;4935942;29;19965;-71
2023/04/23 05:15:01;;;;;;;;;;;12.90;99.90;;;;;;4936868;29;19926;-71
2023/04/23 05:17:27;;;;;;;;;;;13.00;99.90;;;;;;4934811;29;19914;-72
2023/04/23 05:19:52;;;;;;;;;;;12.90;99.90;;;;;;4935920;29;19950;-71
2023/04/23 05:22:18;;;;;;;;;;;13.00;99.90;;;;;;4951741;29;20005;-72
2023/04/23 05:24:45;;;;;;;;;;;12.90;99.90;;;;;;4951767;29;19915;-72
2023/04/23 05:27:11;;;;;;;;;;;13.00;99.90;;;;;;4933948;29;19950;-71
2023/04/23 05:29:37;;;;;;;;;;;12.90;99.90;;;;;;4951334;29;19954;-72
2023/04/23 05:32:02;;;;;;;;;;;13.00;99.90;;;;;;4951389;29;19960;-72
2023/04/23 05:34:28;;;;;;;;;;;13.00;99.90;;;;;;4945165;29;19926;-72
2023/04/23 05:36:54;;;;;;;;;;;13.00;99.90;;;;;;4933204;29;19923;-72
2023/04/23 05:39:19;;;;;;;;;;;13.00;99.90;;;;;;4934896;29;19918;-71
2023/04/23 05:41:45;;;;;;;;;;;13.00;99.90;;;;;;4934983;29;20217;-71
2023/04/23 05:44:11;;;;;;;;;;;12.90;99.90;;;;;;4935596;29;19934;-71
2023/04/23 05:46:37;;;;;;;;;;;12.90;99.90;;;;;;4935354;29;20116;-72
2023/04/23 05:49:03;;;;;;;;;;;13.10;99.90;;;;;;4951882;29;19921;-72
2023/04/23 05:51:28;;;;;;;;;;;13.20;99.90;;;;;;4935555;29;19911;-72
2023/04/23 05:53:54;;;;;;;;;;;13.20;99.90;;;;;;4934452;29;19926;-70
2023/04/23 05:56:20;;;;;;;;;;;13.30;99.90;;;;;;4911783;29;19933;-71
2023/04/23 05:58:45;;;;;;;;;;;13.10;99.90;;;;;;4912833;29;19957;-71
2023/04/23 06:01:11;;;;;;;;;;;12.90;99.90;;;;;;4915654;29;19966;-71
2023/04/23 06:03:37;;;;;;;;;;;13.00;99.90;;;;;;4915628;29;20262;-68
2023/04/23 06:06:02;;;;;;;;;;;13.10;99.90;;;;;;4912320;29;19915;-68
2023/04/23 06:08:28;;;;;;;;;;;13.00;99.90;;;;;;4914226;29;20300;-68
2023/04/23 06:10:57;;;;;;;;;;;12.80;99.90;;;;;;4913037;29;19919;-68
2023/04/23 06:13:23;;;;;;;;;;;12.80;99.90;;;;;;4918733;29;20269;-68
2023/04/23 06:15:48;;;;;;;;;;;12.80;99.90;;;;;;4915599;29;19942;-68
2023/04/23 06:18:14;;;;;;;;;;;12.90;99.90;;;;;;4928893;29;20287;-69
2023/04/23 06:20:39;;;;;;;;;;;13.00;99.90;;;;;;4915138;29;20288;-68
2023/04/23 06:23:05;;;;;;;;;;;12.90;99.90;;;;;;4915425;29;19926;-68
2023/04/23 06:25:31;;;;;;;;;;;12.80;99.90;;;;;;4912026;29;19997;-69
2023/04/23 06:27:57;;;;;;;;;;;12.60;99.90;;;;;;4912131;29;19999;-68
2023/04/23 06:30:22;;;;;;;;;;;12.80;99.90;;;;;;4915835;29;20269;-68
2023/04/23 06:32:48;;;;;;;;;;;12.70;99.90;;;;;;4914709;29;19915;-68
2023/04/23 06:35:14;;;;;;;;;;;12.70;99.90;;;;;;4913572;29;20233;-68
2023/04/23 06:37:40;;;;;;;;;;;12.90;99.90;;;;;;4917549;29;19918;-68
2023/04/23 06:40:08;;;;;;;;;;;12.80;99.90;;;;;;4915461;29;19930;-68
2023/04/23 06:42:34;;;;;;;;;;;12.70;99.90;;;;;;4912386;29;19922;-68
2023/04/23 06:45:03;;;;;;;;;;;12.80;99.90;;;;;;4914964;29;19922;-68
2023/04/23 06:47:29;;;;;;;;;;;12.90;99.90;;;;;;4914425;29;19926;-68
2023/04/23 06:49:54;;;;;;;;;;;12.80;99.90;;;;;;4930468;29;20276;-71
2023/04/23 06:52:20;;;;;;;;;;;12.80;99.90;;;;;;4914530;29;19919;-71
2023/04/23 06:54:46;;;;;;;;;;;12.90;99.90;;;;;;4921062;29;19929;-71
2023/04/23 06:57:11;;;;;;;;;;;13.10;99.90;;;;;;4949518;29;19915;-71
2023/04/23 06:59:37;;;;;;;;;;;12.90;99.90;;;;;;4948242;29;20236;-72
2023/04/23 07:02:02;;;;;;;;;;;13.10;99.90;;;;;;4949617;29;19921;-71
2023/04/23 07:04:28;;;;;;;;;;;13.20;99.90;;;;;;4949169;29;19915;-72
2023/04/23 07:06:54;;;;;;;;;;;13.10;99.90;;;;;;4949539;29;20320;-71
2023/04/23 07:09:19;;;;;;;;;;;13.10;99.90;;;;;;4949735;29;19918;-71
2023/04/23 07:11:45;;;;;;;;;;;13.00;99.90;;;;;;4932855;29;19921;-71
2023/04/23 07:14:11;;;;;;;;;;;13.10;99.90;;;;;;4950160;29;20324;-71
2023/04/23 07:16:36;;;;;;;;;;;13.20;99.90;;;;;;4945221;29;19914;-71
2023/04/23 07:19:02;;;;;;;;;;;13.00;99.90;;;;;;4949207;29;19930;-71
2023/04/23 07:21:27;;;;;;;;;;;13.10;99.90;;;;;;4933318;29;20029;-68
2023/04/23 07:23:58;;;;;;;;;;;13.20;99.90;;;;;;4943627;29;19950;-68
2023/04/23 07:26:24;;;;;;;;;;;13.20;99.90;;;;;;4933769;29;19919;-68
2023/04/23 07:28:50;;;;;;;;;;;13.00;99.90;;;;;;4932029;29;19919;-68
2023/04/23 07:31:16;;;;;;;;;;;13.10;99.90;;;;;;4932314;29;20013;-69
2023/04/23 07:33:43;;;;;;;;;;;13.30;99.90;;;;;;4933192;29;20372;-71
2023/04/23 07:36:09;;;;;;;;;;;13.50;99.90;;;;;;4948208;28;20311;-71
2023/04/23 07:38:34;;;;;;;;;;;13.50;99.90;;;;;;4917403;29;19922;-71
2023/04/23 07:41:00;;;;;;;;;;;13.60;99.90;;;;;;4930401;29;19919;-70
2023/04/23 07:43:26;;;;;;;;;;;13.50;99.90;;;;;;4933284;29;20001;-71
2023/04/23 07:45:51;;;;;;;;;;;13.50;99.90;;;;;;4947587;29;19914;-70
2023/04/23 07:48:17;;;;;;;;;;;13.60;99.90;;;;;;4933821;29;20367;-70
2023/04/23 07:50:43;;;;;;;;;;;13.50;99.90;;;;;;4932875;29;19997;-71
2023/04/23 07:53:08;;;;;;;;;;;13.60;99.90;;;;;;4949289;29;20240;-70
2023/04/23 07:55:34;;;;;;;;;;;13.50;99.90;;;;;;4932572;29;20320;-71
2023/04/23 07:57:59;;;;;;;;;;;13.50;99.90;;;;;;4948788;29;20324;-71
2023/04/23 08:00:25;;;;;;;;;;;13.60;99.90;;;;;;4946747;29;19942;-70
2023/04/23 08:02:52;;;;;;;;;;;13.70;99.90;;;;;;4949036;29;19926;-71
2023/04/23 08:05:17;;;;;;;;;;;13.80;99.90;;;;;;4948290;29;20240;-70
2023/04/23 08:07:43;;;;;;;;;;;13.90;99.90;;;;;;4948163;29;19914;-70
2023/04/23 08:10:09;;;;;;;;;;;13.90;99.90;;;;;;4947221;29;20231;-70
2023/04/23 08:12:36;;;;;;;;;;;14.00;99.90;;;;;;4933967;29;19922;-70
2023/04/23 08:15:02;;;;;;;;;;;13.90;99.90;;;;;;4929615;29;19925;-70
2023/04/23 08:17:29;;;;;;;;;;;14.10;99.90;;;;;;4946152;29;19915;-70
2023/04/23 08:19:54;;;;;;;;;;;13.90;99.90;;;;;;4932698;29;19919;-70
2023/04/23 08:22:20;;;;;;;;;;;14.00;99.90;;;;;;4931486;29;19918;-70
2023/04/23 08:24:46;;;;;;;;;;;14.10;99.90;;;;;;4948798;29;19918;-70
2023/04/23 08:27:12;;;;;;;;;;;13.90;99.90;;;;;;4948582;29;19953;-70
2023/04/23 08:29:37;;;;;;;;;;;13.60;99.90;;;;;;4933591;29;20297;-70
2023/04/23 08:32:03;;;;;;;;;;;13.70;99.90;;;;;;4932176;29;19979;-70
2023/04/23 08:34:28;;;;;;;;;;;13.80;99.90;;;;;;4932582;29;19914;-70
2023/04/23 08:36:54;;;;;;;;;;;14.00;99.90;;;;;;4929219;29;19915;-70
2023/04/23 08:39:20;;;;;;;;;;;14.00;99.90;;;;;;4934042;29;19930;-70
2023/04/23 08:41:53;;;;;;;;;;;14.10;99.90;;;;;;4951903;28;20005;-70
2023/04/23 08:44:22;;;;;;;;;;;13.90;99.90;;;;;;4936165;29;19921;-70
2023/04/23 08:46:48;;;;;;;;;;;13.80;99.90;;;;;;4935455;29;19922;-70
2023/04/23 08:49:15;;;;;;;;;;;13.90;99.90;;;;;;4936066;29;19914;-70
2023/04/23 08:52:01;;;;;;;;;;;14.00;99.90;;;;;;4935602;29;20228;-70
2023/04/23 08:54:27;;;;;;;;;;;13.90;99.90;;;;;;4935210;29;19922;-70
2023/04/23 08:56:56;;;;;;;;;;;14.00;99.90;;;;;;4948953;29;19926;-70
2023/04/23 08:59:21;;;;;;;;;;;14.10;99.90;;;;;;4951506;29;20319;-70
2023/04/23 09:01:47;;;;;;;;;;;14.20;99.90;;;;;;4932917;29;19914;-70
2023/04/23 09:04:15;;;;;;;;;;;14.30;99.90;;;;;;4932351;29;19914;-70
2023/04/23 09:06:44;;;;;;;;;;;14.30;99.90;;;;;;4951418;29;20014;-70
2023/04/23 09:09:11;;;;;;;;;;;14.30;99.90;;;;;;4950685;29;19966;-70
2023/04/23 09:11:37;;;;;;;;;;;14.40;99.90;;;;;;4951349;29;20146;-70
2023/04/23 09:14:03;;;;;;;;;;;14.40;99.90;;;;;;4951371;29;19989;-70
2023/04/23 09:16:28;;;;;;;;;;;14.50;99.90;;;;;;4934921;29;20355;-70
2023/04/23 09:18:54;;;;;;;;;;;14.60;99.90;;;;;;4935598;29;19915;-71
2023/04/23 09:21:20;;;;;;;;;;;14.70;99.90;;;;;;4951645;29;20009;-71
2023/04/23 09:23:45;;;;;;;;;;;14.80;99.90;;;;;;4934590;29;19914;-70
2023/04/23 09:26:17;;;;;;;;;;;14.80;99.90;;;;;;4951511;29;20360;-71
2023/04/23 09:28:43;;;;;;;;;;;14.80;99.90;;;;;;4936073;29;19984;-71
2023/04/23 09:31:09;;;;;;;;;;;14.80;99.90;;;;;;4951446;29;20292;-70
2023/04/23 09:33:35;;;;;;;;;;;14.80;99.90;;;;;;4944491;29;20555;-70
2023/04/23 09:36:10;;;;;;;;;;;14.90;99.90;;;;;;4936198;29;19919;-70
2023/04/23 09:38:38;;;;;;;;;;;14.90;99.90;;;;;;4935026;29;19915;-70
2023/04/23 09:41:25;;;;;;;;;;;14.80;99.90;;;;;;4918617;29;19918;-70
2023/04/23 09:43:51;;;;;;;;;;;15.00;99.90;;;;;;4950856;29;19970;-71
2023/04/23 09:46:17;;;;;;;;;;;15.20;99.90;;;;;;4950950;29;19922;-71
2023/04/23 09:48:49;;;;;;;;;;;15.30;99.90;;;;;;4934858;29;20308;-70
2023/04/23 09:51:15;;;;;;;;;;;15.40;99.90;;;;;;4934125;29;19926;-70
2023/04/23 09:53:42;;;;;;;;;;;15.40;99.90;;;;;;4934823;29;19925;-70
2023/04/23 09:56:07;;;;;;;;;;;15.40;99.90;;;;;;4951114;29;20312;-70
2023/04/23 09:58:33;;;;;;;;;;;15.30;99.90;;;;;;4950195;29;19961;-71
2023/04/23 10:01:08;;;;;;;;;;;15.40;99.90;;;;;;4950678;29;19945;-70
2023/04/23 10:03:34;;;;;;;;;;;15.40;99.90;;;;;;4933593;29;19915;-71
2023/04/23 10:06:00;;;;;;;;;;;15.60;99.90;;;;;;4934592;29;20316;-71
2023/04/23 10:08:26;;;;;;;;;;;15.80;99.90;;;;;;4950489;29;19915;-71
2023/04/23 10:10:51;;;;;;;;;;;15.80;99.90;;;;;;4918679;29;19965;-71
2023/04/23 10:13:17;;;;;;;;;;;15.90;99.90;;;;;;4934196;29;20312;-71
2023/04/23 10:15:44;;;;;;;;;;;16.10;99.90;;;;;;4933827;29;19915;-70
2023/04/23 10:18:10;;;;;;;;;;;16.20;99.90;;;;;;4934400;29;19914;-70
2023/04/23 10:20:36;;;;;;;;;;;16.20;99.90;;;;;;4934052;29;19915;-70
2023/04/23 10:23:02;;;;;;;;;;;16.20;99.90;;;;;;4950609;29;19914;-71
2023/04/23 10:25:27;;;;;;;;;;;16.30;99.90;;;;;;4949103;29;20355;-71
2023/04/23 10:27:53;;;;;;;;;;;16.40;99.90;;;;;;4949755;29;19919;-71
2023/04/23 10:30:19;;;;;;;;;;;16.50;99.40;;;;;;4950046;29;19965;-70
2023/04/23 10:32:44;;;;;;;;;;;16.60;98.40;;;;;;4934346;29;19926;-71
2023/04/23 10:35:10;;;;;;;;;;;16.70;98.40;;;;;;4947389;29;20316;-71
2023/04/23 10:37:36;;;;;;;;;;;16.90;97.40;;;;;;4934713;29;20311;-70
2023/04/23 10:40:08;;;;;;;;;;;16.90;97.00;;;;;;4950526;29;20303;-71
2023/04/23 10:42:33;;;;;;;;;;;16.60;95.60;;;;;;4948358;29;19922;-71
2023/04/23 10:44:59;;;;;;;;;;;16.80;96.90;;;;;;4934802;29;19969;-70
2023/04/23 10:47:25;;;;;;;;;;;16.80;95.50;;;;;;4949043;28;19915;-70
2023/04/23 10:49:51;;;;;;;;;;;16.90;94.90;;;;;;4933752;29;19921;-70
2023/04/23 10:52:17;;;;;;;;;;;17.00;94.20;;;;;;4912719;29;19925;-71
2023/04/23 10:54:46;;;;;;;;;;;17.20;94.50;;;;;;4933480;29;20358;-70
2023/04/23 10:57:12;;;;;;;;;;;17.20;93.00;;;;;;4933796;29;19977;-71
2023/04/23 10:59:39;;;;;;;;;;;17.30;93.80;;;;;;4933338;29;19922;-71
2023/04/23 11:02:08;;;;;;;;;;;17.50;93.90;;;;;;4948927;28;20005;-71
2023/04/23 11:04:34;;;;;;;;;;;17.70;93.50;;;;;;4928116;29;19922;-71
2023/04/23 11:07:03;;;;;;;;;;;17.80;92.80;;;;;;4948766;29;19915;-71
2023/04/23 11:09:30;;;;;;;;;;;17.60;91.80;;;;;;4928806;29;20335;-71
2023/04/23 11:11:56;;;;;;;;;;;17.50;92.20;;;;;;4933298;29;20005;-71
2023/04/23 11:14:41;;;;;;;;;;;17.70;93.00;;;;;;4933756;29;20271;-71
2023/04/23 11:17:07;;;;;;;;;;;18.00;92.50;;;;;;4944846;29;19915;-71
2023/04/23 11:19:36;;;;;;;;;;;17.50;92.20;;;;;;4950032;29;19914;-71
2023/04/23 11:22:05;;;;;;;;;;;17.30;92.60;;;;;;4949264;29;19919;-71
2023/04/23 11:24:41;;;;;;;;;;;17.30;92.50;;;;;;4934329;29;20240;-71
2023/04/23 11:27:13;;;;;;;;;;;17.40;92.40;;;;;;4932043;29;20324;-71
2023/04/23 11:29:39;;;;;;;;;;;17.60;92.50;;;;;;4949248;29;20247;-71
2023/04/23 11:32:09;;;;;;;;;;;17.40;91.50;;;;;;4932498;29;19943;-71
2023/04/23 11:34:38;;;;;;;;;;;17.70;91.40;;;;;;4948124;29;19918;-71
2023/04/23 11:37:04;;;;;;;;;;;17.60;90.90;;;;;;4931654;29;19918;-71
2023/04/23 11:39:30;;;;;;;;;;;18.00;91.10;;;;;;4948894;29;19986;-71
2023/04/23 11:41:58;;;;;;;;;;;18.10;90.00;;;;;;4948652;29;19919;-71
2023/04/23 11:44:23;;;;;;;;;;;17.90;90.30;;;;;;4932310;29;19962;-71
2023/04/23 11:46:49;;;;;;;;;;;18.10;90.60;;;;;;4948916;29;20248;-71
2023/04/23 11:49:18;;;;;;;;;;;18.10;86.00;;;;;;4932950;29;19921;-71
2023/04/23 11:51:44;;;;;;;;;;;18.10;88.00;;;;;;4926567;29;19915;-71
2023/04/23 11:54:10;;;;;;;;;;;18.00;87.00;;;;;;4930835;29;19930;-71
2023/04/23 11:56:36;;;;;;;;;;;18.00;87.90;;;;;;4907958;29;20247;-71
2023/04/23 11:59:02;;;;;;;;;;;18.00;86.70;;;;;;4914103;29;19957;-71
2023/04/23 12:01:44;;;;;;;;;;;17.90;88.70;;;;;;4913771;29;19939;-71
2023/04/23 12:04:11;;;;;;;;;;;17.90;88.20;;;;;;4911965;29;19950;-71
2023/04/23 12:06:37;;;;;;;;;;;18.10;88.60;;;;;;4895889;29;20472;-71
2023/04/23 12:09:03;;;;;;;;;;;18.10;88.10;;;;;;4916902;29;19954;-71
2023/04/23 12:11:28;;;;;;;;;;;18.00;90.20;;;;;;4913180;29;20055;-71
2023/04/23 12:13:55;;;;;;;;;;;18.10;87.90;;;;;;4906582;29;19975;-71
2023/04/23 12:16:32;;;;;;;;;;;18.40;90.20;;;;;;4911302;29;20014;-71
2023/04/23 12:18:58;;;;;;;;;;;18.20;88.80;;;;;;4914469;29;19969;-71
2023/04/23 12:21:28;;;;;;;;;;;18.20;88.10;;;;;;4897470;29;20013;-71
2023/04/23 12:23:54;;;;;;;;;;;17.90;87.10;;;;;;4904412;29;19921;-71
2023/04/23 12:26:20;;;;;;;;;;;17.70;87.90;;;;;;4916469;29;19918;-71
2023/04/23 12:28:49;;;;;;;;;;;17.60;86.00;;;;;;4916537;29;20395;-71
2023/04/23 12:31:33;;;;;;;;;;;17.60;87.10;;;;;;4913139;29;19914;-71
2023/04/23 12:34:02;;;;;;;;;;;17.80;88.10;;;;;;4911009;29;19918;-71
2023/04/23 12:36:30;;;;;;;;;;;17.90;86.70;;;;;;4912310;29;19926;-71
2023/04/23 12:39:15;;;;;;;;;;;17.90;85.90;;;;;;4913538;29;19919;-71
2023/04/23 12:41:42;;;;;;;;;;;18.20;86.60;;;;;;4921992;29;20395;-71
2023/04/23 12:44:08;;;;;;;;;;;18.30;85.10;;;;;;4913614;29;19994;-71
2023/04/23 12:46:33;;;;;;;;;;;18.60;85.90;;;;;;4907592;29;19927;-71
2023/04/23 12:48:59;;;;;;;;;;;18.70;85.60;;;;;;4910133;29;19915;-71
2023/04/23 12:51:26;;;;;;;;;;;19.10;85.50;;;;;;4924117;29;19921;-71
2023/04/23 12:53:51;;;;;;;;;;;19.50;83.40;;;;;;4916539;29;19915;-71
2023/04/23 12:56:17;;;;;;;;;;;19.80;82.00;;;;;;4916616;29;20083;-71
2023/04/23 12:58:42;;;;;;;;;;;19.50;80.40;;;;;;4928811;29;19925;-71
2023/04/23 13:01:10;;;;;;;;;;;19.70;79.50;;;;;;4938704;29;19921;-71
2023/04/23 13:03:36;;;;;;;;;;;19.40;78.40;;;;;;4916913;29;20292;-71
2023/04/23 13:06:01;;;;;;;;;;;19.30;80.20;;;;;;4927376;29;19914;-71
2023/04/23 13:08:27;;;;;;;;;;;19.10;80.20;;;;;;4948542;29;19926;-71
2023/04/23 13:10:52;;;;;;;;;;;19.10;79.30;;;;;;4901668;29;19950;-71
2023/04/23 13:13:18;;;;;;;;;;;19.00;80.70;;;;;;4936686;29;19933;-73
2023/04/23 13:15:44;;;;;;;;;;;19.00;80.60;;;;;;4934999;29;19918;-72
2023/04/23 13:18:09;;;;;;;;;;;18.90;78.70;;;;;;4902671;29;19966;-70
2023/04/23 13:20:35;;;;;;;;;;;18.90;80.90;;;;;;4920035;29;19985;-70
2023/04/23 13:23:03;;;;;;;;;;;18.80;79.60;;;;;;4934866;29;19989;-70
2023/04/23 13:25:29;;;;;;;;;;;18.70;80.40;;;;;;4948049;28;19950;-70
2023/04/23 13:27:55;;;;;;;;;;;18.30;80.40;;;;;;4936670;29;19946;-69
2023/04/23 13:30:21;;;;;;;;;;;17.80;86.60;;;;;;4930945;29;19970;-69
2023/04/23 13:32:46;;;;;;;;;;;17.40;89.80;;;;;;4935721;29;20272;-70
2023/04/23 13:35:13;;;;;;;;;;;17.10;91.10;;;;;;4936273;29;19926;-70
2023/04/23 13:37:40;;;;;;;;;;;16.90;93.00;;;;;;4935491;29;19985;-70
2023/04/23 13:40:06;;;;;;;;;;;17.00;94.20;;;;;;4924142;29;19921;-70
2023/04/23 13:42:33;;;;;;;;;;;16.70;97.20;;;;;;4947896;29;19914;-69
2023/04/23 13:44:58;;;;;;;;;;;16.40;98.00;;;;;;4936446;29;19915;-69
2023/04/23 13:47:26;;;;;;;;;;;16.40;99.60;;;;;;4931021;29;19922;-70
2023/04/23 13:49:51;;;;;;;;;;;16.30;99.90;;;;;;4948258;29;19918;-70
2023/04/23 13:52:17;;;;;;;;;;;16.30;99.90;;;;;;4935191;29;19910;-71
2023/04/23 13:54:42;;;;;;;;;;;16.20;99.90;;;;;;4929476;29;19923;-71
2023/04/23 13:57:08;;;;;;;;;;;16.50;99.90;;;;;;4950194;28;19929;-71
2023/04/23 13:59:34;;;;;;;;;;;16.70;99.90;;;;;;4950204;29;19953;-71
2023/04/23 14:02:00;;;;;;;;;;;16.70;99.90;;;;;;4950925;29;19997;-71
2023/04/23 14:04:25;;;;;;;;;;;16.70;99.90;;;;;;4934918;29;20320;-71
2023/04/23 14:06:51;;;;;;;;;;;16.70;99.90;;;;;;4948938;29;19915;-71
2023/04/23 14:09:17;;;;;;;;;;;17.00;99.90;;;;;;4934724;29;19915;-71
2023/04/23 14:11:43;;;;;;;;;;;17.10;99.90;;;;;;4933535;29;20264;-71